createdAt,value
2023-03-12T00:00:20.796Z,6.68
2023-03-12T00:02:47.097Z,7.82
2023-03-12T00:05:13.657Z,8.02
2023-03-12T00:07:40.383Z,8.13
2023-03-12T00:10:06.699Z,7.95
2023-03-12T00:12:33.075Z,7.00
2023-03-12T00:14:59.524Z,7.10
2023-03-12T00:17:25.946Z,6.78
2023-03-12T00:19:52.312Z,7.63
2023-03-12T00:22:18.694Z,6.75
2023-03-12T00:24:45.023Z,7.55
2023-03-12T00:27:11.385Z,8.52
2023-03-12T00:29:37.708Z,6.88
2023-03-12T00:32:04.059Z,7.10
2023-03-12T00:34:30.507Z,6.40
2023-03-12T00:36:57.047Z,7.20
2023-03-12T00:39:23.428Z,7.18
2023-03-12T00:41:49.814Z,7.22
2023-03-12T00:44:16.362Z,6.90
2023-03-12T00:46:42.753Z,6.05
2023-03-12T00:49:09.368Z,7.20
2023-03-12T00:51:35.908Z,8.25
2023-03-12T00:54:02.268Z,6.10
2023-03-12T00:56:28.706Z,7.53
2023-03-12T00:58:55.012Z,7.75
2023-03-12T01:01:21.606Z,5.95
2023-03-12T01:03:48.316Z,6.00
2023-03-12T01:06:14.683Z,6.65
2023-03-12T01:08:41.107Z,6.55
2023-03-12T01:11:07.440Z,5.47
2023-03-12T01:13:34.187Z,6.05
2023-03-12T01:16:00.714Z,5.65
2023-03-12T01:18:27.529Z,6.13
2023-03-12T01:20:53.891Z,7.38
2023-03-12T01:23:20.339Z,5.63
2023-03-12T01:25:47.274Z,6.03
2023-03-12T01:28:13.652Z,5.20
2023-03-12T01:30:40.010Z,5.65
2023-03-12T01:33:06.529Z,6.55
2023-03-12T01:35:32.935Z,6.30
2023-03-12T01:37:59.408Z,6.05
2023-03-12T01:40:25.732Z,5.50
2023-03-12T01:42:52.273Z,5.82
2023-03-12T01:45:18.748Z,5.55
2023-03-12T01:47:45.298Z,5.80
2023-03-12T01:50:11.726Z,5.45
2023-03-12T01:52:38.141Z,6.22
2023-03-12T01:55:04.538Z,5.35
2023-03-12T01:57:30.946Z,5.13
2023-03-12T01:59:57.359Z,5.35
2023-03-12T02:02:23.728Z,6.13
2023-03-12T02:04:51.203Z,4.28
2023-03-12T02:07:18.239Z,4.72
2023-03-12T02:09:44.945Z,5.82
2023-03-12T02:12:11.341Z,5.28
2023-03-12T02:14:38.075Z,6.40
2023-03-12T02:17:04.946Z,4.63
2023-03-12T02:19:32.186Z,6.10
2023-03-12T02:21:59.510Z,5.85
2023-03-12T02:24:28.062Z,6.07
2023-03-12T02:26:54.433Z,4.63
2023-03-12T02:29:20.974Z,5.55
2023-03-12T02:31:47.336Z,5.70
2023-03-12T02:34:14.366Z,4.93
2023-03-12T02:36:41.333Z,6.03
2023-03-12T02:39:07.848Z,4.68
2023-03-12T02:41:34.262Z,5.43
2023-03-12T02:44:01.277Z,4.78
2023-03-12T02:46:27.658Z,4.20
2023-03-12T02:48:54.027Z,4.97
2023-03-12T02:51:20.336Z,4.32
2023-03-12T02:53:46.746Z,5.35
2023-03-12T02:56:13.158Z,5.95
2023-03-12T02:58:39.806Z,5.07
2023-03-12T03:01:06.305Z,4.32
2023-03-12T03:03:32.823Z,5.47
2023-03-12T03:05:59.192Z,4.47
2023-03-12T03:08:25.532Z,5.55
2023-03-12T03:10:52.049Z,4.40
2023-03-12T03:13:18.822Z,4.60
2023-03-12T03:15:45.621Z,4.90
2023-03-12T03:18:12.438Z,4.25
2023-03-12T03:20:39.685Z,4.55
2023-03-12T03:23:06.843Z,4.15
2023-03-12T03:25:33.223Z,4.78
2023-03-12T03:27:59.911Z,5.90
2023-03-12T03:30:26.267Z,5.20
2023-03-12T03:32:52.721Z,4.10
2023-03-12T03:35:19.630Z,3.53
2023-03-12T03:37:46.234Z,4.05
2023-03-12T03:40:12.764Z,4.43
2023-03-12T03:42:39.445Z,4.35
2023-03-12T03:45:05.846Z,4.45
2023-03-12T03:47:32.267Z,4.20
2023-03-12T03:49:59.251Z,4.70
2023-03-12T03:52:26.076Z,5.00
2023-03-12T03:54:52.560Z,4.60
2023-03-12T03:57:19.576Z,4.85
2023-03-12T03:59:46.531Z,5.55
2023-03-12T04:02:13.103Z,4.18
2023-03-12T04:04:41.863Z,3.65
2023-03-12T04:07:09.130Z,4.00
2023-03-12T04:09:36.482Z,4.65
2023-03-12T04:12:04.189Z,3.90
2023-03-12T04:14:31.351Z,5.00
2023-03-12T04:16:58.380Z,5.55
2023-03-12T04:19:25.202Z,3.88
2023-03-12T04:21:51.966Z,5.30
2023-03-12T04:24:19.562Z,3.63
2023-03-12T04:26:46.639Z,5.18
2023-03-12T04:29:13.946Z,5.30
2023-03-12T04:31:41.132Z,4.43
2023-03-12T04:34:07.907Z,4.60
2023-03-12T04:36:34.319Z,4.53
2023-03-12T04:39:01.125Z,5.00
2023-03-12T04:41:27.611Z,4.07
2023-03-12T04:43:54.422Z,4.28
2023-03-12T04:46:20.936Z,4.93
2023-03-12T04:48:47.302Z,3.33
2023-03-12T04:51:13.602Z,5.63
2023-03-12T04:53:40.096Z,5.88
2023-03-12T04:56:06.450Z,3.55
2023-03-12T04:58:34.815Z,4.03
2023-03-12T05:01:01.301Z,3.85
2023-03-12T05:03:28.073Z,4.43
2023-03-12T05:05:54.473Z,4.68
2023-03-12T05:08:20.847Z,3.55
2023-03-12T05:10:47.291Z,3.85
2023-03-12T05:13:13.695Z,3.83
2023-03-12T05:15:40.105Z,4.70
2023-03-12T05:18:06.718Z,4.60
2023-03-12T05:20:33.220Z,4.15
2023-03-12T05:23:00.018Z,3.40
2023-03-12T05:25:26.731Z,3.92
2023-03-12T05:27:53.123Z,4.38
2023-03-12T05:30:19.850Z,5.05
2023-03-12T05:32:46.392Z,4.18
2023-03-12T05:35:13.287Z,4.10
2023-03-12T05:37:39.956Z,3.50
2023-03-12T05:40:06.284Z,3.83
2023-03-12T05:42:33.041Z,3.25
2023-03-12T05:44:59.527Z,3.13
2023-03-12T05:47:26.181Z,3.35
2023-03-12T05:49:52.870Z,3.97
2023-03-12T05:52:19.306Z,4.30
2023-03-12T05:54:45.650Z,4.05
2023-03-12T05:57:11.955Z,3.25
2023-03-12T05:59:38.228Z,3.15
2023-03-12T06:02:04.764Z,3.67
2023-03-12T06:04:31.283Z,4.00
2023-03-12T06:06:57.687Z,3.65
2023-03-12T06:09:24.120Z,3.58
2023-03-12T06:11:50.668Z,3.63
2023-03-12T06:14:17.246Z,3.15
2023-03-12T06:16:43.717Z,3.55
2023-03-12T06:19:10.424Z,4.10
2023-03-12T06:21:36.922Z,3.65
2023-03-12T06:24:03.337Z,4.55
2023-03-12T06:26:29.767Z,2.80
2023-03-12T06:28:56.322Z,3.25
2023-03-12T06:31:22.892Z,5.38
2023-03-12T06:33:49.565Z,4.32
2023-03-12T06:36:16.151Z,4.32
2023-03-12T06:38:42.626Z,3.28
2023-03-12T06:41:08.954Z,3.65
2023-03-12T06:43:35.639Z,3.88
2023-03-12T06:46:02.149Z,3.45
2023-03-12T06:48:28.845Z,3.60
2023-03-12T06:50:55.154Z,2.78
2023-03-12T06:53:21.599Z,3.03
2023-03-12T06:55:48.002Z,2.92
2023-03-12T06:58:14.622Z,3.38
2023-03-12T07:00:40.974Z,3.53
2023-03-12T07:03:07.345Z,4.28
2023-03-12T07:05:33.730Z,2.97
2023-03-12T07:08:00.158Z,3.13
2023-03-12T07:10:27.003Z,3.60
2023-03-12T07:12:53.636Z,4.45
2023-03-12T07:15:20.018Z,4.93
2023-03-12T07:17:46.334Z,5.18
2023-03-12T07:20:12.759Z,4.43
2023-03-12T07:22:39.410Z,3.63
2023-03-12T07:25:05.874Z,3.08
2023-03-12T07:27:32.234Z,4.00
2023-03-12T07:29:58.904Z,4.72
2023-03-12T07:32:25.910Z,3.75
2023-03-12T07:34:52.392Z,3.95
2023-03-12T07:37:18.820Z,2.88
2023-03-12T07:39:45.310Z,3.72
2023-03-12T07:42:11.734Z,3.30
2023-03-12T07:44:38.297Z,3.15
2023-03-12T07:47:20.722Z,3.40
2023-03-12T07:49:49.731Z,3.28
2023-03-12T07:52:16.228Z,3.47
2023-03-12T07:54:42.741Z,4.13
2023-03-12T07:57:09.188Z,4.75
2023-03-12T07:59:35.853Z,3.25
2023-03-12T08:02:02.532Z,3.80
2023-03-12T08:04:29.277Z,3.42
2023-03-12T08:06:55.671Z,5.07
2023-03-12T08:09:22.263Z,2.95
2023-03-12T08:11:49.171Z,3.40
2023-03-12T08:14:15.555Z,4.50
2023-03-12T08:16:42.021Z,5.05
2023-03-12T08:19:08.508Z,4.03
2023-03-12T08:21:35.025Z,3.90
2023-03-12T08:24:01.719Z,4.32
2023-03-12T08:26:28.289Z,3.55
2023-03-12T08:28:54.618Z,3.92
2023-03-12T08:31:21.152Z,3.67
2023-03-12T08:33:47.569Z,3.75
2023-03-12T08:36:13.987Z,5.18
2023-03-12T08:38:40.560Z,3.58
2023-03-12T08:41:07.041Z,3.75
2023-03-12T08:43:33.494Z,3.97
2023-03-12T08:46:00.138Z,5.30
2023-03-12T08:48:26.561Z,4.28
2023-03-12T08:50:52.952Z,4.50
2023-03-12T08:53:19.250Z,3.15
2023-03-12T08:55:45.733Z,4.10
2023-03-12T08:58:12.198Z,3.97
2023-03-12T09:00:38.752Z,3.55
2023-03-12T09:03:05.517Z,3.47
2023-03-12T09:05:31.976Z,4.88
2023-03-12T09:07:58.572Z,4.85
2023-03-12T09:10:24.891Z,4.63
2023-03-12T09:12:51.962Z,3.08
2023-03-12T09:15:18.431Z,3.42
2023-03-12T09:17:44.789Z,4.38
2023-03-12T09:20:11.133Z,3.45
2023-03-12T09:22:37.741Z,3.72
2023-03-12T09:25:04.155Z,3.03
2023-03-12T09:27:30.473Z,7.40
2023-03-12T09:30:00.552Z,4.20
2023-03-12T09:32:27.941Z,4.78
2023-03-12T09:34:54.463Z,4.13
2023-03-12T09:37:23.651Z,3.35
2023-03-12T09:39:50.402Z,3.13
2023-03-12T09:42:17.305Z,5.07
2023-03-12T09:44:43.811Z,3.85
2023-03-12T09:47:10.335Z,3.65
2023-03-12T09:49:37.295Z,4.13
2023-03-12T09:52:03.661Z,5.50
2023-03-12T09:54:30.111Z,3.35
2023-03-12T09:56:56.738Z,3.53
2023-03-12T09:59:23.451Z,3.70
2023-03-12T10:01:50.079Z,4.63
2023-03-12T10:04:16.548Z,5.63
2023-03-12T10:06:43.021Z,3.08
2023-03-12T10:09:09.481Z,3.60
2023-03-12T10:11:35.785Z,4.90
2023-03-12T10:14:02.250Z,6.05
2023-03-12T10:16:28.958Z,3.85
2023-03-12T10:18:55.671Z,4.10
2023-03-12T10:21:22.046Z,4.20
2023-03-12T10:23:48.600Z,4.40
2023-03-12T10:26:15.015Z,5.18
2023-03-12T10:28:41.984Z,10.88
2023-03-12T10:31:08.494Z,7.07
2023-03-12T10:33:35.137Z,47.03
2023-03-12T10:36:01.511Z,218.05
2023-03-12T10:38:27.888Z,249.38
2023-03-12T10:40:54.414Z,218.50
2023-03-12T10:43:20.857Z,199.55
2023-03-12T10:45:47.202Z,181.98
2023-03-12T10:48:14.025Z,171.52
2023-03-12T10:50:40.392Z,159.07
2023-03-12T10:53:06.684Z,138.82
2023-03-12T10:55:33.219Z,135.57
2023-03-12T10:57:59.626Z,128.55
2023-03-12T11:00:26.174Z,116.97
2023-03-12T11:02:53.261Z,107.55
2023-03-12T11:05:19.893Z,92.85
2023-03-12T11:07:46.720Z,83.68
2023-03-12T11:10:14.357Z,77.38
2023-03-12T11:12:41.499Z,69.43
2023-03-12T11:15:07.907Z,67.45
2023-03-12T11:17:34.275Z,63.22
2023-03-12T11:20:00.720Z,61.40
2023-03-12T11:22:27.722Z,53.97
2023-03-12T11:24:54.301Z,54.95
2023-03-12T11:27:20.673Z,54.22
2023-03-12T11:29:47.225Z,48.30
2023-03-12T11:32:13.795Z,119.40
2023-03-12T11:34:40.336Z,247.73
2023-03-12T11:37:07.215Z,230.50
2023-03-12T11:39:33.660Z,213.73
2023-03-12T11:42:00.121Z,199.55
2023-03-12T11:44:26.938Z,187.55
2023-03-12T11:46:53.330Z,180.57
2023-03-12T11:49:20.069Z,192.48
2023-03-12T11:51:46.667Z,198.60
2023-03-12T11:54:13.339Z,191.93
2023-03-12T11:56:39.758Z,261.58
2023-03-12T11:59:06.065Z,301.02
2023-03-12T12:01:32.541Z,326.08
2023-03-12T12:03:59.112Z,298.70
2023-03-12T12:06:25.912Z,273.25
2023-03-12T12:08:52.602Z,261.17
2023-03-12T12:11:19.216Z,247.40
2023-03-12T12:13:45.824Z,228.77
2023-03-12T12:16:12.296Z,212.88
2023-03-12T12:18:39.412Z,185.98
2023-03-12T12:21:05.792Z,171.82
2023-03-12T12:23:32.253Z,146.68
2023-03-12T12:25:59.430Z,144.35
2023-03-12T12:28:26.228Z,134.23
2023-03-12T12:30:52.571Z,132.80
2023-03-12T12:33:19.524Z,125.15
2023-03-12T12:35:46.317Z,127.93
2023-03-12T12:38:13.459Z,117.30
2023-03-12T12:40:39.854Z,112.15
2023-03-12T12:43:06.508Z,109.85
2023-03-12T12:45:32.898Z,105.22
2023-03-12T12:47:59.780Z,189.25
2023-03-12T12:50:26.368Z,217.85
2023-03-12T12:52:52.836Z,242.20
2023-03-12T12:55:19.883Z,222.23
2023-03-12T12:57:46.262Z,206.02
2023-03-12T13:00:13.046Z,195.65
2023-03-12T13:02:39.880Z,178.13
2023-03-12T13:05:06.255Z,162.88
2023-03-12T13:07:32.595Z,157.23
2023-03-12T13:09:59.439Z,149.40
2023-03-12T13:12:26.329Z,145.50
2023-03-12T13:14:53.081Z,144.00
2023-03-12T13:17:19.440Z,137.35
2023-03-12T13:19:55.297Z,128.07
2023-03-12T13:22:25.823Z,201.32
2023-03-12T13:24:52.491Z,256.05
2023-03-12T13:27:18.856Z,261.67
2023-03-12T13:29:45.756Z,242.90
2023-03-12T13:32:12.088Z,206.52
2023-03-12T13:34:38.579Z,197.40
2023-03-12T13:37:04.939Z,186.57
2023-03-12T13:39:31.647Z,214.15
2023-03-12T13:41:58.530Z,342.45
2023-03-12T13:44:25.194Z,324.30
2023-03-12T13:46:51.623Z,322.40
2023-03-12T13:49:17.987Z,299.75
2023-03-12T13:51:44.383Z,296.20
2023-03-12T13:54:10.720Z,284.63
2023-03-12T13:56:37.047Z,283.17
2023-03-12T13:59:03.538Z,269.30
2023-03-12T14:01:30.038Z,276.58
2023-03-12T14:03:56.450Z,264.40
2023-03-12T14:06:22.968Z,256.38
2023-03-12T14:08:49.292Z,251.73
2023-03-12T14:11:16.163Z,254.13
2023-03-12T14:13:42.715Z,240.20
2023-03-12T14:16:09.435Z,238.10
2023-03-12T14:18:35.876Z,239.88
2023-03-12T14:21:02.691Z,232.60
2023-03-12T14:23:29.581Z,228.60
2023-03-12T14:25:56.476Z,227.38
2023-03-12T14:28:23.083Z,228.77
2023-03-12T14:30:49.643Z,218.13
2023-03-12T14:33:16.150Z,211.18
2023-03-12T14:35:43.255Z,207.50
2023-03-12T14:38:09.643Z,206.30
2023-03-12T14:40:36.037Z,205.45
2023-03-12T14:43:02.411Z,205.30
2023-03-12T14:45:29.143Z,201.98
2023-03-12T14:47:55.518Z,201.80
2023-03-12T14:50:22.007Z,197.73
2023-03-12T14:52:48.350Z,188.90
2023-03-12T14:55:15.202Z,187.93
2023-03-12T14:57:41.594Z,181.68
2023-03-12T15:00:07.993Z,180.32
2023-03-12T15:02:34.329Z,177.95
2023-03-12T15:05:00.929Z,174.68
2023-03-12T15:07:27.594Z,171.82
2023-03-12T15:09:53.959Z,171.07
2023-03-12T15:12:20.322Z,168.23
2023-03-12T15:14:46.892Z,164.93
2023-03-12T15:17:13.211Z,160.43
2023-03-12T15:19:39.951Z,162.90
2023-03-12T15:22:06.719Z,154.82
2023-03-12T15:24:33.116Z,152.02
2023-03-12T15:26:59.429Z,146.88
2023-03-12T15:29:26.215Z,151.48
2023-03-12T15:31:52.978Z,142.88
2023-03-12T15:34:19.825Z,136.77
2023-03-12T15:36:46.244Z,141.63
2023-03-12T15:39:12.814Z,136.15
2023-03-12T15:41:39.254Z,138.75
2023-03-12T15:44:05.818Z,135.60
2023-03-12T15:46:32.682Z,131.23
2023-03-12T15:48:59.432Z,129.70
2023-03-12T15:51:26.027Z,124.53
2023-03-12T15:53:52.744Z,122.78
2023-03-12T15:56:19.315Z,120.47
2023-03-12T15:58:45.663Z,122.22
2023-03-12T16:01:12.218Z,115.40
2023-03-12T16:03:39.308Z,112.65
2023-03-12T16:06:06.014Z,118.00
2023-03-12T16:08:32.666Z,110.65
2023-03-12T16:10:59.135Z,108.90
2023-03-12T16:13:25.615Z,107.43
2023-03-12T16:15:52.013Z,106.22
2023-03-12T16:18:18.379Z,102.70
2023-03-12T16:20:44.776Z,101.55
2023-03-12T16:23:11.768Z,98.20
2023-03-12T16:25:38.187Z,98.93
2023-03-12T16:28:04.958Z,96.57
2023-03-12T16:30:31.898Z,94.57
2023-03-12T16:32:58.444Z,89.15
2023-03-12T16:35:24.880Z,89.80
2023-03-12T16:37:51.524Z,87.70
2023-03-12T16:40:30.913Z,88.20
2023-03-12T16:43:00.221Z,88.65
2023-03-12T16:45:26.726Z,86.90
2023-03-12T16:47:53.117Z,80.72
2023-03-12T16:50:19.733Z,87.47
2023-03-12T16:52:46.100Z,81.25
2023-03-12T16:55:12.514Z,78.43
2023-03-12T16:57:39.416Z,80.57
2023-03-12T17:00:06.257Z,77.00
2023-03-12T17:02:32.921Z,76.15
2023-03-12T17:04:59.808Z,75.70
2023-03-12T17:07:26.159Z,72.82
2023-03-12T17:09:52.634Z,75.68
2023-03-12T17:12:19.491Z,70.80
2023-03-12T17:14:45.918Z,72.55
2023-03-12T17:17:12.750Z,69.55
2023-03-12T17:19:39.360Z,70.05
2023-03-12T17:22:05.767Z,65.97
2023-03-12T17:24:32.152Z,64.00
2023-03-12T17:26:58.894Z,64.70
2023-03-12T17:29:26.323Z,64.13
2023-03-12T17:31:52.841Z,60.75
2023-03-12T17:34:19.691Z,61.17
2023-03-12T17:36:46.217Z,58.20
2023-03-12T17:39:12.781Z,63.08
2023-03-12T17:41:39.161Z,57.58
2023-03-12T17:44:05.859Z,57.92
2023-03-12T17:46:32.280Z,57.00
2023-03-12T17:48:58.753Z,55.20
2023-03-12T17:51:25.240Z,54.35
2023-03-12T17:53:51.587Z,53.83
2023-03-12T17:56:18.004Z,54.00
2023-03-12T17:58:44.446Z,51.22
2023-03-12T18:01:12.649Z,50.80
2023-03-12T18:03:40.050Z,49.30
2023-03-12T18:06:07.673Z,47.33
2023-03-12T18:08:33.964Z,47.38
2023-03-12T18:11:00.397Z,45.60
2023-03-12T18:13:27.053Z,45.88
2023-03-12T18:15:53.455Z,44.55
2023-03-12T18:18:21.194Z,44.20
2023-03-12T18:20:47.600Z,44.67
2023-03-12T18:23:14.205Z,45.50
2023-03-12T18:25:40.723Z,44.83
2023-03-12T18:28:08.028Z,43.53
2023-03-12T18:30:34.610Z,41.75
2023-03-12T18:33:01.438Z,44.80
2023-03-12T18:35:27.896Z,41.17
2023-03-12T18:37:54.348Z,39.20
2023-03-12T18:40:21.263Z,42.33
2023-03-12T18:42:47.804Z,39.22
2023-03-12T18:45:14.179Z,40.95
2023-03-12T18:47:40.574Z,39.67
2023-03-12T18:50:07.445Z,36.97
2023-03-12T18:52:34.051Z,37.08
2023-03-12T18:55:00.455Z,37.35
2023-03-12T18:57:27.823Z,35.13
2023-03-12T18:59:54.225Z,35.50
2023-03-12T19:02:20.616Z,36.90
2023-03-12T19:04:47.047Z,33.53
2023-03-12T19:07:13.641Z,33.30
2023-03-12T19:09:40.174Z,33.53
2023-03-12T19:12:07.023Z,34.17
2023-03-12T19:14:33.401Z,34.95
2023-03-12T19:16:59.784Z,31.98
2023-03-12T19:19:26.769Z,31.13
2023-03-12T19:21:53.191Z,30.30
2023-03-12T19:24:19.600Z,29.30
2023-03-12T19:26:46.092Z,28.02
2023-03-12T19:29:13.101Z,29.25
2023-03-12T19:31:39.634Z,29.25
2023-03-12T19:34:06.098Z,31.42
2023-03-12T19:36:32.571Z,29.33
2023-03-12T19:39:02.386Z,29.27
2023-03-12T19:41:31.113Z,28.50
2023-03-12T19:43:57.988Z,26.48
2023-03-12T19:46:24.861Z,27.98
2023-03-12T19:48:51.746Z,27.98
2023-03-12T19:51:18.194Z,27.15
2023-03-12T19:53:44.841Z,26.50
2023-03-12T19:56:11.669Z,26.60
2023-03-12T19:58:38.270Z,25.85
2023-03-12T20:01:04.632Z,24.92
2023-03-12T20:03:31.021Z,24.42
2023-03-12T20:05:57.613Z,26.63
2023-03-12T20:08:24.031Z,24.63
2023-03-12T20:10:50.608Z,24.40
2023-03-12T20:13:17.795Z,22.30
2023-03-12T20:15:45.031Z,22.30
2023-03-12T20:18:11.426Z,23.10
2023-03-12T20:20:38.442Z,22.23
2023-03-12T20:23:04.907Z,20.73
2023-03-12T20:25:31.612Z,22.65
2023-03-12T20:27:58.389Z,21.08
2023-03-12T20:30:25.184Z,21.15
2023-03-12T20:32:51.564Z,21.33
2023-03-12T20:35:18.110Z,18.73
2023-03-12T20:37:45.331Z,21.15
2023-03-12T20:40:11.872Z,20.88
2023-03-12T20:42:38.303Z,21.25
2023-03-12T20:45:04.735Z,19.77
2023-03-12T20:47:31.471Z,20.48
2023-03-12T20:49:58.326Z,17.80
2023-03-12T20:52:24.766Z,19.35
2023-03-12T20:54:51.429Z,17.88
2023-03-12T20:57:17.973Z,18.27
2023-03-12T20:59:45.558Z,19.23
2023-03-12T21:02:11.868Z,17.77
2023-03-12T21:04:38.264Z,17.67
2023-03-12T21:07:04.912Z,18.02
2023-03-12T21:09:31.306Z,17.63
2023-03-12T21:11:57.692Z,16.73
2023-03-12T21:14:24.210Z,17.92
2023-03-12T21:16:50.626Z,15.73
2023-03-12T21:19:17.108Z,16.20
2023-03-12T21:21:43.471Z,16.38
2023-03-12T21:24:09.915Z,16.48
2023-03-12T21:26:36.340Z,17.33
2023-03-12T21:29:02.676Z,15.00
2023-03-12T21:31:29.515Z,16.50
2023-03-12T21:33:56.224Z,14.57
2023-03-12T21:36:22.755Z,15.52
2023-03-12T21:38:49.162Z,15.45
2023-03-12T21:41:16.011Z,15.55
2023-03-12T21:43:42.425Z,14.50
2023-03-12T21:46:08.746Z,14.38
2023-03-12T21:48:35.306Z,14.25
2023-03-12T21:51:01.804Z,16.42
2023-03-12T21:53:28.206Z,14.30
2023-03-12T21:55:54.854Z,13.40
2023-03-12T21:58:22.293Z,14.75
2023-03-12T22:00:48.722Z,14.57
2023-03-12T22:03:15.166Z,13.63
2023-03-12T22:05:41.538Z,13.68
2023-03-12T22:08:07.984Z,12.65
2023-03-12T22:10:34.413Z,13.82
2023-03-12T22:13:00.870Z,12.52
2023-03-12T22:15:27.260Z,13.95
2023-03-12T22:17:54.107Z,12.73
2023-03-12T22:20:20.618Z,14.02
2023-03-12T22:22:47.931Z,12.60
2023-03-12T22:25:14.209Z,12.38
2023-03-12T22:27:41.035Z,13.27
2023-03-12T22:30:07.418Z,13.85
2023-03-12T22:32:34.058Z,12.32
2023-03-12T22:35:00.459Z,12.90
2023-03-12T22:37:27.347Z,12.27
2023-03-12T22:39:53.633Z,13.50
2023-03-12T22:42:20.602Z,12.00
2023-03-12T22:44:47.837Z,12.48
2023-03-12T22:47:14.179Z,11.75
2023-03-12T22:49:41.004Z,11.43
2023-03-12T22:52:07.376Z,11.55
2023-03-12T22:54:33.888Z,11.40
2023-03-12T22:57:00.590Z,11.63
2023-03-12T22:59:27.596Z,11.55
2023-03-12T23:01:54.008Z,11.65
2023-03-12T23:04:20.518Z,10.93
2023-03-12T23:06:47.382Z,10.98
2023-03-12T23:09:13.952Z,11.80
2023-03-12T23:11:40.691Z,10.95
2023-03-12T23:14:07.664Z,10.88
2023-03-12T23:16:34.125Z,10.02
2023-03-12T23:19:00.689Z,10.90
2023-03-12T23:21:27.174Z,9.93
2023-03-12T23:23:53.691Z,10.65
2023-03-12T23:26:20.041Z,9.93
2023-03-12T23:28:46.397Z,11.10
2023-03-12T23:31:12.991Z,10.05
2023-03-12T23:33:39.757Z,10.10
2023-03-12T23:36:06.265Z,10.70
2023-03-12T23:38:33.946Z,9.43
2023-03-12T23:41:01.001Z,10.23
2023-03-12T23:43:27.491Z,9.80
2023-03-12T23:45:54.040Z,9.90
2023-03-12T23:48:20.401Z,10.07
2023-03-12T23:50:46.791Z,9.48
2023-03-12T23:53:13.108Z,9.98
2023-03-12T23:55:39.469Z,9.85
2023-03-12T23:58:06.098Z,9.18
